Time;durP1;ratioP1;P1;durP2;ratioP2;P2;SDS_P1;SDS_P2;PMS_P1;PMS_P2;Temp;Humidity;BMP_temperature;BMP_pressure;BME280_temperature;BME280_humidity;BME280_pressure;Samples;Min_cycle;Max_cycle;Signal;HPM_P1;HPM_P2
2024/01/06 00:02:04;;;;;;;;;;;-0.30;99.90;;;;;;5067895;28;19923;-79
2024/01/06 00:04:29;;;;;;;;;;;-0.30;99.90;;;;;;5070462;28;19912;-79
2024/01/06 00:06:55;;;;;;;;;;;-0.30;99.90;;;;;;5068075;28;19915;-79
2024/01/06 00:09:20;;;;;;;;;;;-0.30;99.90;;;;;;5068030;28;19927;-80
2024/01/06 00:11:46;;;;;;;;;;;-0.30;99.90;;;;;;5068584;28;20379;-79
2024/01/06 00:14:11;;;;;;;;;;;-0.40;99.90;;;;;;5050888;28;19916;-79
2024/01/06 00:16:36;;;;;;;;;;;-0.30;99.90;;;;;;5068480;28;19909;-79
2024/01/06 00:19:02;;;;;;;;;;;-0.30;99.90;;;;;;5068274;28;19931;-80
2024/01/06 00:21:27;;;;;;;;;;;-0.30;99.90;;;;;;5048168;28;19908;-80
2024/01/06 00:23:55;;;;;;;;;;;-0.30;99.90;;;;;;5067350;28;19908;-79
2024/01/06 00:26:21;;;;;;;;;;;-0.30;99.90;;;;;;5066712;28;20453;-79
2024/01/06 00:28:48;;;;;;;;;;;-0.30;99.90;;;;;;5050333;28;20003;-80
2024/01/06 00:31:15;;;;;;;;;;;-0.30;99.90;;;;;;5047514;28;19920;-79
2024/01/06 00:33:41;;;;;;;;;;;-0.30;99.90;;;;;;5047258;28;20025;-79
2024/01/06 00:36:07;;;;;;;;;;;-0.20;99.90;;;;;;5064701;28;19938;-79
2024/01/06 00:38:32;;;;;;;;;;;-0.20;99.90;;;;;;5065897;28;19908;-80
2024/01/06 00:40:58;;;;;;;;;;;-0.20;99.90;;;;;;5069194;28;19919;-80
2024/01/06 00:43:23;;;;;;;;;;;-0.20;99.90;;;;;;5058357;28;20508;-79
2024/01/06 00:45:49;;;;;;;;;;;-0.20;99.90;;;;;;5049159;28;19912;-79
2024/01/06 00:48:14;;;;;;;;;;;-0.20;99.90;;;;;;5061719;28;19987;-79
2024/01/06 00:50:40;;;;;;;;;;;-0.20;99.90;;;;;;5040505;28;19912;-79
2024/01/06 00:53:05;;;;;;;;;;;-0.20;99.90;;;;;;5064341;28;19912;-79
2024/01/06 00:55:31;;;;;;;;;;;-0.20;99.90;;;;;;5045344;28;19908;-79
2024/01/06 00:57:56;;;;;;;;;;;-0.20;99.90;;;;;;5064587;28;19908;-79
2024/01/06 01:00:22;;;;;;;;;;;-0.20;99.90;;;;;;5060917;28;19916;-80
2024/01/06 01:02:48;;;;;;;;;;;-0.20;99.90;;;;;;5065995;28;19989;-79
2024/01/06 01:05:13;;;;;;;;;;;-0.20;99.90;;;;;;5064914;28;20631;-79
2024/01/06 01:07:39;;;;;;;;;;;-0.20;99.90;;;;;;5066013;28;20013;-79
2024/01/06 01:10:05;;;;;;;;;;;-0.20;99.90;;;;;;5048919;28;19918;-79
2024/01/06 01:12:31;;;;;;;;;;;-0.20;99.90;;;;;;5049400;28;19916;-79
2024/01/06 01:14:56;;;;;;;;;;;-0.20;99.90;;;;;;5063042;28;19916;-79
2024/01/06 01:17:22;;;;;;;;;;;-0.20;99.90;;;;;;5056449;28;20272;-80
2024/01/06 01:19:47;;;;;;;;;;;-0.20;99.90;;;;;;5068419;28;19912;-79
2024/01/06 01:22:13;;;;;;;;;;;-0.20;99.90;;;;;;5067222;28;19912;-79
2024/01/06 01:24:39;;;;;;;;;;;-0.20;99.90;;;;;;5046547;28;19984;-80
2024/01/06 01:27:04;;;;;;;;;;;-0.20;99.90;;;;;;5066932;28;21340;-80
2024/01/06 01:29:29;;;;;;;;;;;-0.20;99.90;;;;;;5069391;28;21649;-79
2024/01/06 01:31:55;;;;;;;;;;;-0.20;99.90;;;;;;5071547;28;19970;-80
2024/01/06 01:34:20;;;;;;;;;;;-0.20;99.90;;;;;;5070438;28;19908;-80
2024/01/06 01:36:46;;;;;;;;;;;-0.20;99.90;;;;;;5071768;28;19912;-79
2024/01/06 01:39:11;;;;;;;;;;;-0.20;99.90;;;;;;5069369;28;19915;-79
2024/01/06 01:41:37;;;;;;;;;;;-0.10;99.90;;;;;;5066282;28;20385;-80
2024/01/06 01:44:02;;;;;;;;;;;-0.10;99.90;;;;;;5071364;28;20791;-79
2024/01/06 01:46:28;;;;;;;;;;;-0.10;99.90;;;;;;5049450;28;19978;-79
2024/01/06 01:48:55;;;;;;;;;;;-0.10;99.90;;;;;;5065224;28;19959;-79
2024/01/06 01:51:21;;;;;;;;;;;-0.10;99.90;;;;;;5067698;28;19920;-80
2024/01/06 01:53:46;;;;;;;;;;;-0.10;99.90;;;;;;5071023;28;19958;-80
2024/01/06 01:56:12;;;;;;;;;;;-0.10;99.90;;;;;;5052297;28;19908;-80
2024/01/06 01:58:37;;;;;;;;;;;-0.10;99.90;;;;;;5066743;28;19913;-80
2024/01/06 02:01:03;;;;;;;;;;;-0.10;99.90;;;;;;5061300;28;19908;-80
2024/01/06 02:03:29;;;;;;;;;;;-0.10;99.90;;;;;;5073305;28;19963;-80
2024/01/06 02:05:55;;;;;;;;;;;0.00;99.90;;;;;;5069807;28;20374;-80
2024/01/06 02:08:20;;;;;;;;;;;-0.10;99.90;;;;;;5065958;28;19921;-80
2024/01/06 02:10:46;;;;;;;;;;;-0.10;99.90;;;;;;5069893;28;19995;-79
2024/01/06 02:13:12;;;;;;;;;;;-0.10;99.90;;;;;;5067748;28;19909;-79
2024/01/06 02:15:37;;;;;;;;;;;-0.10;99.90;;;;;;5066535;28;20360;-80
2024/01/06 02:18:03;;;;;;;;;;;-0.10;99.90;;;;;;5066685;28;19909;-80
2024/01/06 02:20:30;;;;;;;;;;;-0.10;99.90;;;;;;5070027;28;20003;-79
2024/01/06 02:22:56;;;;;;;;;;;-0.10;99.90;;;;;;5066734;28;19963;-80
2024/01/06 02:25:22;;;;;;;;;;;-0.10;99.90;;;;;;5069302;28;20301;-79
2024/01/06 02:27:47;;;;;;;;;;;-0.10;99.90;;;;;;5067914;28;19908;-79
2024/01/06 02:30:13;;;;;;;;;;;-0.10;99.90;;;;;;5066264;28;20378;-79
2024/01/06 02:32:38;;;;;;;;;;;-0.10;99.90;;;;;;5046457;28;19924;-79
2024/01/06 02:35:04;;;;;;;;;;;-0.10;99.90;;;;;;5061898;28;19935;-79
2024/01/06 02:37:29;;;;;;;;;;;-0.10;99.90;;;;;;5050681;28;19919;-80
2024/01/06 02:39:55;;;;;;;;;;;-0.10;99.90;;;;;;5069003;28;19991;-80
2024/01/06 02:42:20;;;;;;;;;;;-0.10;99.90;;;;;;5051564;28;20375;-79
2024/01/06 02:44:46;;;;;;;;;;;-0.10;99.90;;;;;;5064189;28;19909;-79
2024/01/06 02:47:11;;;;;;;;;;;-0.10;99.90;;;;;;5048664;28;20352;-79
2024/01/06 02:49:36;;;;;;;;;;;-0.10;99.90;;;;;;5051662;28;19908;-79
2024/01/06 02:52:02;;;;;;;;;;;-0.10;99.90;;;;;;5067897;28;19923;-79
2024/01/06 02:54:27;;;;;;;;;;;-0.10;99.90;;;;;;5048377;28;19909;-79
2024/01/06 02:56:53;;;;;;;;;;;-0.10;99.90;;;;;;5063110;28;19916;-80
2024/01/06 02:59:18;;;;;;;;;;;-0.10;99.90;;;;;;5069795;28;19935;-79
2024/01/06 03:01:44;;;;;;;;;;;0.00;99.90;;;;;;5058145;28;19943;-79
2024/01/06 03:04:09;;;;;;;;;;;0.00;99.90;;;;;;5067346;28;19923;-79
2024/01/06 03:06:35;;;;;;;;;;;0.00;99.90;;;;;;5070100;28;19995;-80
2024/01/06 03:09:00;;;;;;;;;;;0.00;99.90;;;;;;5069515;28;20007;-79
2024/01/06 03:11:26;;;;;;;;;;;0.00;99.90;;;;;;5069101;28;20376;-79
2024/01/06 03:13:51;;;;;;;;;;;0.00;99.90;;;;;;5065659;28;19917;-79
2024/01/06 03:16:17;;;;;;;;;;;0.00;99.90;;;;;;5067124;28;20352;-79
2024/01/06 03:18:42;;;;;;;;;;;0.00;99.90;;;;;;5069040;28;20484;-79
2024/01/06 03:21:20;;;;;;;;;;;-0.10;99.90;;;;;;5052138;28;20352;-80
2024/01/06 03:23:46;;;;;;;;;;;-0.10;99.90;;;;;;5052472;28;19908;-79
2024/01/06 03:26:11;;;;;;;;;;;-0.10;99.90;;;;;;5069102;28;19913;-79
2024/01/06 03:28:37;;;;;;;;;;;-0.10;99.90;;;;;;5067556;28;19966;-80
2024/01/06 03:31:02;;;;;;;;;;;-0.10;99.90;;;;;;5067451;28;19952;-80
2024/01/06 03:33:28;;;;;;;;;;;-0.10;99.90;;;;;;5068231;28;19912;-80
2024/01/06 03:35:53;;;;;;;;;;;-0.10;99.90;;;;;;5063347;28;19912;-80
2024/01/06 03:38:18;;;;;;;;;;;-0.10;99.90;;;;;;5068511;28;20379;-80
2024/01/06 03:40:44;;;;;;;;;;;-0.10;99.90;;;;;;5065623;28;20364;-79
2024/01/06 03:43:09;;;;;;;;;;;-0.10;99.90;;;;;;5062809;28;20525;-80
2024/01/06 03:45:35;;;;;;;;;;;-0.10;99.90;;;;;;5066701;28;20326;-79
2024/01/06 03:48:00;;;;;;;;;;;-0.10;99.90;;;;;;5064858;28;19916;-79
2024/01/06 03:50:26;;;;;;;;;;;-0.10;99.90;;;;;;5064125;28;19908;-79
2024/01/06 03:52:51;;;;;;;;;;;-0.10;99.90;;;;;;5049283;28;19950;-79
2024/01/06 03:55:16;;;;;;;;;;;-0.10;99.90;;;;;;5070396;28;19958;-80
2024/01/06 03:57:42;;;;;;;;;;;-0.10;99.90;;;;;;5066620;28;20308;-79
2024/01/06 04:00:08;;;;;;;;;;;-0.10;99.90;;;;;;5067991;28;19931;-80
2024/01/06 04:02:33;;;;;;;;;;;-0.10;99.90;;;;;;5059991;28;19912;-79
2024/01/06 04:04:59;;;;;;;;;;;-0.10;99.90;;;;;;5064628;28;19932;-79
2024/01/06 04:07:24;;;;;;;;;;;-0.10;99.90;;;;;;5062516;28;19924;-79
2024/01/06 04:09:50;;;;;;;;;;;-0.10;99.90;;;;;;5062359;28;19908;-79
2024/01/06 04:12:15;;;;;;;;;;;-0.10;99.90;;;;;;5067826;28;19923;-79
2024/01/06 04:14:40;;;;;;;;;;;-0.10;99.90;;;;;;5061847;28;19912;-79
2024/01/06 04:17:06;;;;;;;;;;;-0.10;99.90;;;;;;5068360;28;19908;-79
2024/01/06 04:19:31;;;;;;;;;;;-0.10;99.90;;;;;;5064213;28;19915;-79
2024/01/06 04:21:57;;;;;;;;;;;-0.10;99.90;;;;;;5063903;28;20001;-79
2024/01/06 04:24:22;;;;;;;;;;;-0.10;99.90;;;;;;5066083;28;19916;-79
2024/01/06 04:26:49;;;;;;;;;;;-0.10;99.90;;;;;;5070726;28;20066;-80
2024/01/06 04:29:14;;;;;;;;;;;-0.10;99.90;;;;;;5066538;28;20021;-79
2024/01/06 04:31:42;;;;;;;;;;;-0.10;99.90;;;;;;5064522;28;20402;-78
2024/01/06 04:34:08;;;;;;;;;;;-0.10;99.90;;;;;;5066640;28;20356;-80
2024/01/06 04:36:33;;;;;;;;;;;-0.10;99.90;;;;;;5064508;28;19912;-80
2024/01/06 04:38:59;;;;;;;;;;;-0.10;99.90;;;;;;5066893;28;20039;-79
2024/01/06 04:41:25;;;;;;;;;;;-0.10;99.90;;;;;;5061661;28;19912;-79
2024/01/06 04:43:50;;;;;;;;;;;-0.10;99.90;;;;;;5056096;28;20418;-79
2024/01/06 04:46:15;;;;;;;;;;;-0.10;99.90;;;;;;5061319;28;19916;-79
2024/01/06 04:48:41;;;;;;;;;;;-0.10;99.90;;;;;;5066679;28;19920;-79
2024/01/06 04:51:09;;;;;;;;;;;-0.10;99.90;;;;;;5062678;28;20411;-79
2024/01/06 04:53:38;;;;;;;;;;;-0.10;99.90;;;;;;5063753;28;19913;-79
2024/01/06 04:56:04;;;;;;;;;;;-0.10;99.90;;;;;;5064244;28;19912;-79
2024/01/06 04:58:29;;;;;;;0.30;0.30;;;-0.20;99.90;;;;;;5062639;28;19936;-79
2024/01/06 05:00:55;;;;;;;0.40;0.40;;;-0.10;99.90;;;;;;5063669;28;20185;-79
2024/01/06 05:03:20;;;;;;;0.50;0.50;;;-0.10;99.90;;;;;;5067978;28;20269;-79
2024/01/06 05:05:46;;;;;;;0.50;0.50;;;-0.20;99.90;;;;;;5068052;28;20190;-80
2024/01/06 05:08:11;;;;;;;0.50;0.50;;;-0.10;99.90;;;;;;5066586;28;20225;-79
2024/01/06 05:10:37;;;;;;;0.40;0.40;;;-0.10;99.90;;;;;;5068260;28;20185;-80
2024/01/06 05:13:02;;;;;;;0.50;0.50;;;-0.10;99.90;;;;;;5065873;28;20197;-80
2024/01/06 05:15:28;;;;;;;0.40;0.40;;;-0.10;99.90;;;;;;5069029;28;20264;-80
2024/01/06 05:17:54;;;;;;;0.50;0.50;;;-0.10;99.90;;;;;;5071948;28;20192;-79
2024/01/06 05:20:19;;;;;;;0.40;0.40;;;-0.10;99.90;;;;;;5070309;28;20234;-79
2024/01/06 05:22:45;;;;;;;0.50;0.50;;;-0.10;99.90;;;;;;5063279;28;20179;-79
2024/01/06 05:25:10;;;;;;;0.40;0.40;;;-0.10;99.90;;;;;;5065566;28;20269;-79
2024/01/06 05:27:36;;;;;;;0.50;0.50;;;-0.10;99.90;;;;;;5067241;28;20561;-80
2024/01/06 05:30:02;;;;;;;;;;;-0.10;99.90;;;;;;5066401;28;20047;-79
2024/01/06 05:32:27;;;;;;;;;;;-0.10;99.90;;;;;;5063555;28;19916;-79
2024/01/06 05:34:53;;;;;;;;;;;-0.10;99.90;;;;;;5071476;28;19912;-79
2024/01/06 05:37:18;;;;;;;;;;;-0.10;99.90;;;;;;5070167;28;19916;-79
2024/01/06 05:39:43;;;;;;;;;;;-0.20;99.90;;;;;;5067243;28;19912;-79
2024/01/06 05:42:11;;;;;;;;;;;-0.20;99.90;;;;;;5070313;28;19916;-80
2024/01/06 05:44:37;;;;;;;;;;;-0.20;99.90;;;;;;5069038;28;19920;-79
2024/01/06 05:47:02;;;;;;;0.40;0.40;;;-0.20;99.90;;;;;;5069670;28;20017;-79
2024/01/06 05:49:28;;;;;;;0.40;0.40;;;-0.20;99.90;;;;;;5068785;28;20196;-80
2024/01/06 05:51:53;;;;;;;0.47;0.47;;;-0.10;99.90;;;;;;5070688;28;20248;-80
2024/01/06 05:54:19;;;;;;;0.40;0.40;;;-0.10;99.90;;;;;;5067588;28;20192;-79
2024/01/06 05:56:44;;;;;;;0.50;0.50;;;-0.20;99.90;;;;;;5062084;28;20182;-80
2024/01/06 05:59:10;;;;;;;0.40;0.40;;;-0.10;99.90;;;;;;5068542;28;20181;-80
2024/01/06 06:01:35;;;;;;;0.40;0.40;;;-0.10;99.90;;;;;;5054174;28;20647;-79
2024/01/06 06:04:01;;;;;;;0.50;0.50;;;-0.10;99.90;;;;;;5036230;28;20182;-80
2024/01/06 06:06:27;;;;;;;0.50;0.50;;;-0.10;99.90;;;;;;5064186;28;20190;-80
2024/01/06 06:08:52;;;;;;;0.43;0.43;;;-0.10;99.90;;;;;;5047388;28;20219;-79
2024/01/06 06:11:18;;;;;;;0.40;0.40;;;-0.10;99.90;;;;;;5069718;28;20209;-80
2024/01/06 06:13:44;;;;;;;0.50;0.50;;;-0.10;99.90;;;;;;5070932;28;20197;-80
2024/01/06 06:16:13;;;;;;;0.40;0.40;;;-0.10;99.90;;;;;;5069475;28;20251;-80
2024/01/06 06:18:39;;;;;;;0.40;0.40;;;-0.10;99.90;;;;;;5069258;28;20202;-79
2024/01/06 06:21:06;;;;;;;0.40;0.40;;;-0.10;99.90;;;;;;5071168;28;20800;-80
2024/01/06 06:23:32;;;;;;;0.40;0.40;;;0.00;99.90;;;;;;5070510;28;20185;-79
2024/01/06 06:25:57;;;;;;;0.30;0.30;;;-0.10;99.90;;;;;;5070350;28;20437;-80
2024/01/06 06:28:23;;;;;;;0.43;0.43;;;-0.10;99.90;;;;;;5071861;28;20267;-79
2024/01/06 06:30:48;;;;;;;0.30;0.30;;;-0.10;99.90;;;;;;5071437;28;20563;-80
2024/01/06 06:33:14;;;;;;;0.50;0.50;;;0.00;99.90;;;;;;5052399;28;20197;-80
2024/01/06 06:35:40;;;;;;;0.50;0.50;;;0.00;99.90;;;;;;5051349;28;20190;-80
2024/01/06 06:38:06;;;;;;;0.43;0.43;;;-0.10;99.90;;;;;;5069455;28;20182;-80
2024/01/06 06:40:31;;;;;;;0.30;0.30;;;-0.10;99.90;;;;;;5055343;28;20178;-80
2024/01/06 06:42:57;;;;;;;0.50;0.50;;;-0.10;99.90;;;;;;5061712;28;20454;-79
2024/01/06 06:45:22;;;;;;;0.40;0.40;;;-0.10;99.90;;;;;;5065715;28;20214;-81
2024/01/06 06:47:51;;;;;;;0.30;0.30;;;0.00;99.90;;;;;;5068652;28;20267;-81
2024/01/06 06:50:17;;;;;;;0.50;0.50;;;0.00;99.90;;;;;;5067983;28;20180;-81
2024/01/06 06:52:42;;;;;;;0.40;0.40;;;0.00;99.90;;;;;;5070810;28;20498;-80
2024/01/06 06:55:08;;;;;;;0.40;0.40;;;0.00;99.90;;;;;;5060574;28;20909;-80
2024/01/06 06:57:34;;;;;;;0.40;0.40;;;0.00;99.90;;;;;;5066089;28;20205;-81
2024/01/06 07:00:00;;;;;;;0.50;0.50;;;0.00;99.90;;;;;;5071705;28;20416;-79
2024/01/06 07:02:25;;;;;;;0.40;0.40;;;0.00;99.90;;;;;;5048889;28;20631;-81
2024/01/06 07:04:51;;;;;;;0.50;0.50;;;0.00;99.90;;;;;;5068739;28;20194;-79
2024/01/06 07:07:17;;;;;;;0.47;0.47;;;0.10;99.90;;;;;;5068853;28;20218;-80
2024/01/06 07:09:42;;;;;;;0.50;0.50;;;0.10;99.90;;;;;;5068164;28;20190;-81
2024/01/06 07:12:08;;;;;;;0.50;0.50;;;0.10;99.90;;;;;;5068925;28;20267;-81
2024/01/06 07:14:33;;;;;;;0.40;0.40;;;0.10;99.90;;;;;;5070219;28;20194;-81
2024/01/06 07:16:59;;;;;;;0.40;0.40;;;0.10;99.90;;;;;;5071306;28;20198;-81
2024/01/06 07:19:24;;;;;;;0.50;0.50;;;0.10;99.90;;;;;;5068366;28;20178;-81
2024/01/06 07:21:50;;;;;;;0.40;0.40;;;0.20;99.90;;;;;;5069078;28;20180;-81
2024/01/06 07:24:17;;;;;;;0.40;0.40;;;0.10;99.90;;;;;;5044479;28;20629;-80
2024/01/06 07:26:43;;;;;;;0.50;0.50;;;0.10;99.90;;;;;;5069857;28;20666;-80
2024/01/06 07:29:08;;;;;;;0.50;0.50;;;0.10;99.90;;;;;;5071108;28;20440;-81
2024/01/06 07:31:34;;;;;;;0.40;0.40;;;0.20;99.90;;;;;;5064548;28;20293;-80
2024/01/06 07:33:59;;;;;;;0.40;0.40;;;0.10;99.90;;;;;;5062334;28;20527;-81
2024/01/06 07:36:25;;;;;;;0.40;0.40;;;0.10;99.90;;;;;;5051942;28;20181;-81
2024/01/06 07:38:51;;;;;;;0.50;0.50;;;0.20;99.90;;;;;;5052451;28;20182;-81
2024/01/06 07:41:17;;;;;;;0.40;0.40;;;0.20;99.90;;;;;;5052427;28;20205;-80
2024/01/06 07:43:43;;;;;;;0.50;0.50;;;0.20;99.90;;;;;;5069624;28;20476;-80
2024/01/06 07:46:09;;;;;;;0.40;0.40;;;0.30;99.90;;;;;;5069213;28;20472;-80
2024/01/06 07:48:35;;;;;;;0.43;0.43;;;0.20;99.90;;;;;;5068042;28;20638;-80
2024/01/06 07:51:02;;;;;;;0.40;0.40;;;0.20;99.90;;;;;;5043942;28;20528;-81
2024/01/06 07:53:27;;;;;;;0.50;0.50;;;0.20;99.90;;;;;;5065630;28;20440;-80
2024/01/06 07:55:53;;;;;;;0.50;0.50;;;0.20;99.90;;;;;;5069918;28;20500;-80
2024/01/06 07:58:19;;;;;;;0.40;0.40;;;0.20;99.90;;;;;;5050355;28;20182;-81
2024/01/06 08:00:45;;;;;;;0.47;0.47;;;0.20;99.90;;;;;;5069614;28;20178;-80
2024/01/06 08:03:11;;;;;;;0.50;0.50;;;0.20;99.90;;;;;;5049904;28;20443;-80
2024/01/06 08:05:37;;;;;;;0.40;0.40;;;0.20;99.90;;;;;;5067068;28;20174;-80
2024/01/06 08:08:04;;;;;;;0.50;0.50;;;0.10;99.90;;;;;;5068827;28;20283;-80
2024/01/06 08:10:29;;;;;;;0.40;0.40;;;0.10;99.90;;;;;;5070045;28;20459;-80
2024/01/06 08:12:55;;;;;;;0.50;0.50;;;0.20;99.90;;;;;;5067858;28;20959;-80
2024/01/06 08:15:22;;;;;;;0.50;0.50;;;0.20;99.90;;;;;;5053236;28;20214;-80
2024/01/06 08:17:47;;;;;;;0.50;0.50;;;0.20;99.90;;;;;;5068023;28;20448;-80
2024/01/06 08:20:13;;;;;;;0.50;0.50;;;0.20;99.90;;;;;;5069021;28;20194;-80
2024/01/06 08:22:38;;;;;;;0.50;0.50;;;0.20;99.90;;;;;;5051413;28;20182;-81
2024/01/06 08:25:08;;;;;;;0.40;0.40;;;0.20;99.90;;;;;;5069478;28;20103;-81
2024/01/06 08:27:34;;;;;;;0.50;0.50;;;0.20;99.90;;;;;;5064665;28;20182;-80
2024/01/06 08:30:00;;;;;;;0.40;0.40;;;0.20;99.90;;;;;;5067980;28;20440;-80
2024/01/06 08:32:26;;;;;;;0.50;0.50;;;0.20;99.90;;;;;;5065447;28;20472;-80
2024/01/06 08:34:51;;;;;;;0.50;0.50;;;0.30;99.90;;;;;;5070565;28;20438;-80
2024/01/06 08:37:17;;;;;;;0.40;0.40;;;0.30;99.90;;;;;;5069961;28;20182;-80
2024/01/06 08:39:43;;;;;;;0.50;0.50;;;0.30;99.90;;;;;;5064405;28;20186;-81
2024/01/06 08:42:08;;;;;;;0.40;0.40;;;0.30;99.90;;;;;;5068994;28;20174;-80
2024/01/06 08:44:34;;;;;;;0.50;0.50;;;0.30;99.90;;;;;;5051750;28;20213;-81
2024/01/06 08:46:59;;;;;;;0.40;0.40;;;0.40;99.90;;;;;;5051884;28;20229;-81
2024/01/06 08:49:25;;;;;;;0.50;0.50;;;0.30;99.90;;;;;;5067508;28;20186;-80
2024/01/06 08:51:50;;;;;;;0.50;0.50;;;0.30;99.90;;;;;;5066552;28;20231;-80
2024/01/06 08:54:16;;;;;;;0.40;0.40;;;0.30;99.90;;;;;;5065742;28;20190;-80
2024/01/06 08:56:41;;;;;;;0.40;0.40;;;0.40;99.90;;;;;;5067572;28;20242;-80
2024/01/06 08:59:07;;;;;;;0.40;0.40;;;0.40;99.90;;;;;;5060622;28;20953;-80
2024/01/06 09:01:34;;;;;;;0.50;0.50;;;0.40;99.90;;;;;;5069328;28;20747;-80
2024/01/06 09:03:59;;;;;;;0.50;0.50;;;0.40;99.90;;;;;;5068503;28;20526;-80
2024/01/06 09:06:25;;;;;;;0.50;0.50;;;0.50;99.90;;;;;;5066761;28;20455;-80
2024/01/06 09:08:51;;;;;;;0.47;0.47;;;0.50;99.90;;;;;;5058510;28;20237;-80
2024/01/06 09:11:16;;;;;;;0.50;0.50;;;0.50;99.90;;;;;;5056509;28;20245;-80
2024/01/06 09:13:42;;;;;;;0.50;0.50;;;0.50;99.90;;;;;;5054254;28;20649;-80
2024/01/06 09:16:07;;;;;;;0.40;0.40;;;0.40;99.90;;;;;;5069472;28;20182;-80
2024/01/06 09:18:33;;;;;;;0.40;0.40;;;0.50;99.90;;;;;;5063866;28;20201;-80
2024/01/06 09:20:58;;;;;;;0.50;0.50;;;0.50;99.90;;;;;;5048073;28;20654;-80
2024/01/06 09:23:24;;;;;;;0.40;0.40;;;0.50;99.90;;;;;;5068273;28;20205;-80
2024/01/06 09:25:51;;;;;;;0.40;0.40;;;0.50;99.90;;;;;;5049165;28;20235;-80
2024/01/06 09:28:17;;;;;;;0.47;0.47;;;0.50;99.90;;;;;;5051215;28;20827;-80
2024/01/06 09:30:42;;;;;;;0.40;0.40;;;0.50;99.90;;;;;;5050330;28;20498;-81
2024/01/06 09:33:08;;;;;;;0.40;0.40;;;0.50;99.90;;;;;;5066225;28;20218;-81
2024/01/06 09:35:34;;;;;;;0.50;0.50;;;0.50;99.90;;;;;;5061856;28;20230;-81
2024/01/06 09:38:00;;;;;;;0.50;0.50;;;0.60;99.90;;;;;;5046215;28;20224;-81
2024/01/06 09:40:25;;;;;;;0.40;0.40;;;0.50;99.90;;;;;;5068728;28;20448;-81
2024/01/06 09:42:52;;;;;;;0.40;0.40;;;0.50;99.90;;;;;;5063181;28;20178;-81
2024/01/06 09:45:17;;;;;;;0.50;0.50;;;0.50;99.90;;;;;;5049087;28;20205;-81
2024/01/06 09:47:51;;;;;;;0.40;0.40;;;0.50;99.90;;;;;;5068603;28;20428;-80
2024/01/06 09:50:20;;;;;;;0.40;0.40;;;0.50;99.90;;;;;;5050943;28;20331;-81
2024/01/06 09:52:53;;;;;;;0.40;0.40;;;0.50;99.90;;;;;;5071781;28;20483;-80
2024/01/06 09:55:24;;;;;;;0.40;0.40;;;0.40;99.90;;;;;;5068159;28;20436;-80
2024/01/06 09:57:49;;;;;;;0.40;0.40;;;0.50;99.90;;;;;;5049631;28;21038;-80
2024/01/06 10:00:16;;;;;;;0.40;0.40;;;0.40;99.90;;;;;;5044326;28;20439;-80
2024/01/06 10:02:43;;;;;;;0.50;0.50;;;0.50;99.90;;;;;;5065619;28;20194;-79
2024/01/06 10:05:09;;;;;;;0.40;0.40;;;0.50;99.90;;;;;;5061490;28;20436;-80
2024/01/06 10:07:35;;;;;;;0.40;0.40;;;0.50;99.90;;;;;;5072499;28;20464;-80
2024/01/06 10:10:01;;;;;;;0.40;0.40;;;0.40;99.90;;;;;;5072393;28;20428;-80
2024/01/06 10:12:29;;;;;;;0.50;0.50;;;0.40;99.90;;;;;;5068434;28;20221;-79
2024/01/06 10:14:55;;;;;;;0.50;0.50;;;0.50;99.90;;;;;;5052565;28;20241;-79
2024/01/06 10:17:21;;;;;;;0.40;0.40;;;0.50;99.90;;;;;;5054038;28;20890;-79
2024/01/06 10:19:48;;;;;;;0.40;0.40;;;0.50;99.90;;;;;;5071854;28;20189;-79
2024/01/06 10:22:14;;;;;;;0.43;0.43;;;0.50;99.90;;;;;;5067171;28;20425;-79
2024/01/06 10:24:39;;;;;;;0.50;0.50;;;0.50;99.90;;;;;;5066063;28;20949;-80
2024/01/06 10:27:06;;;;;;;0.40;0.40;;;0.50;99.90;;;;;;5066659;28;20440;-79
2024/01/06 10:29:32;;;;;;;0.50;0.50;;;0.40;99.90;;;;;;5062678;28;20691;-80
2024/01/06 10:31:58;;;;;;;0.40;0.40;;;0.50;99.90;;;;;;5064804;28;20490;-80
2024/01/06 10:34:23;;;;;;;0.47;0.47;;;0.50;99.90;;;;;;5050297;28;20432;-80
2024/01/06 10:36:51;;;;;;;0.30;0.30;;;0.50;99.90;;;;;;5047717;28;20448;-81
2024/01/06 10:39:18;;;;;;;0.50;0.50;;;0.50;99.90;;;;;;5071614;28;20194;-80
2024/01/06 10:41:44;;;;;;;0.40;0.40;;;0.50;99.90;;;;;;5053225;28;20436;-80
2024/01/06 10:44:11;;;;;;;0.40;0.40;;;0.50;99.90;;;;;;5058041;28;20459;-79
2024/01/06 10:46:38;;;;;;;0.50;0.50;;;0.50;99.90;;;;;;5050683;28;21033;-79
2024/01/06 10:49:05;;;;;;;0.40;0.40;;;0.50;99.90;;;;;;5047867;28;20446;-79
2024/01/06 10:51:33;;;;;;;0.40;0.40;;;0.50;99.90;;;;;;5070767;28;20471;-79
2024/01/06 10:54:01;;;;;;;0.50;0.50;;;0.50;99.90;;;;;;5068116;28;20460;-79
2024/01/06 10:56:26;;;;;;;0.50;0.50;;;0.40;99.90;;;;;;5060493;28;20458;-79
2024/01/06 10:58:53;;;;;;;0.40;0.40;;;0.50;99.90;;;;;;5060777;28;20445;-80
2024/01/06 11:01:21;;;;;;;0.50;0.50;;;0.40;99.90;;;;;;5065086;28;20189;-79
2024/01/06 11:03:48;;;;;;;0.40;0.40;;;0.40;99.90;;;;;;5068662;28;20426;-80
2024/01/06 11:06:14;;;;;;;0.50;0.50;;;0.40;99.90;;;;;;5069787;28;20416;-80
2024/01/06 11:09:08;;;;;;;0.50;0.50;;;0.40;99.90;;;;;;5070201;28;20510;-79
2024/01/06 11:11:36;;;;;;;0.40;0.40;;;0.40;99.90;;;;;;5067667;28;20560;-80
2024/01/06 11:14:25;;;;;;;0.50;0.50;;;0.40;99.90;;;;;;5071005;28;20413;-79
2024/01/06 11:16:52;;;;;;;0.40;0.40;;;0.40;99.90;;;;;;5067096;28;20447;-80
2024/01/06 11:19:36;;;;;;;0.50;0.50;;;0.40;99.90;;;;;;5065755;28;20409;-80
2024/01/06 11:22:24;;;;;;;0.50;0.50;;;0.40;99.90;;;;;;5069944;28;20416;-80
2024/01/06 11:24:56;;;;;;;0.50;0.50;;;0.40;99.90;;;;;;5036162;28;20455;-78
2024/01/06 11:27:29;;;;;;;0.50;0.50;;;0.40;99.90;;;;;;5069371;28;20428;-79
2024/01/06 11:29:56;;;;;;;0.30;0.30;;;0.40;99.90;;;;;;5070422;28;20435;-80
2024/01/06 11:32:28;;;;;;;0.50;0.50;;;0.50;99.90;;;;;;5070159;28;20570;-80
2024/01/06 11:34:56;;;;;;;0.40;0.40;;;0.50;99.90;;;;;;5069924;28;20407;-80
2024/01/06 11:37:36;;;;;;;0.50;0.50;;;0.50;99.90;;;;;;5070324;28;20429;-80
2024/01/06 11:40:01;;;;;;;0.50;0.50;;;0.50;99.90;;;;;;5053020;28;20420;-80
2024/01/06 11:42:35;;;;;;;0.40;0.40;;;0.50;99.90;;;;;;5066391;28;20426;-81
2024/01/06 11:45:07;;;;;;;0.50;0.50;;;0.50;99.90;;;;;;5067539;28;20269;-81
2024/01/06 11:47:34;;;;;;;0.33;0.33;;;0.50;99.90;;;;;;5070088;28;20420;-80
2024/01/06 11:50:06;;;;;;;0.50;0.50;;;0.50;99.90;;;;;;5070062;28;20424;-80
2024/01/06 11:52:33;;;;;;;0.50;0.50;;;0.50;99.90;;;;;;5057164;28;20521;-80
2024/01/06 11:54:59;;;;;;;0.40;0.40;;;0.40;99.90;;;;;;5069239;28;20442;-80
2024/01/06 11:57:29;;;;;;;0.50;0.50;;;0.40;99.90;;;;;;5067012;28;20444;-80
2024/01/06 11:59:54;;;;;;;0.50;0.50;;;0.40;99.90;;;;;;5059000;28;20478;-80
2024/01/06 12:02:23;;;;;;;0.50;0.50;;;0.40;99.90;;;;;;5068342;28;20431;-80
2024/01/06 12:04:51;;;;;;;0.40;0.40;;;0.50;99.90;;;;;;5068932;28;20194;-80
2024/01/06 12:07:17;;;;;;;0.50;0.50;;;0.40;99.90;;;;;;5067119;28;20455;-80
2024/01/06 12:09:42;;;;;;;0.40;0.40;;;0.40;99.90;;;;;;5063712;28;21003;-80
2024/01/06 12:12:10;;;;;;;0.50;0.50;;;0.40;99.90;;;;;;5059705;28;20488;-80
2024/01/06 12:14:36;;;;;;;0.50;0.50;;;0.40;99.90;;;;;;5067468;28;20186;-80
2024/01/06 12:17:04;;;;;;;0.53;0.53;;;0.40;99.90;;;;;;5069515;28;20432;-80
2024/01/06 12:19:32;;;;;;;0.50;0.50;;;0.40;99.90;;;;;;5062839;28;20439;-80
2024/01/06 12:21:57;;;;;;;0.40;0.40;;;0.50;99.90;;;;;;5069563;28;20432;-79
2024/01/06 12:24:23;;;;;;;0.40;0.40;;;0.40;99.90;;;;;;5067660;28;20483;-80
2024/01/06 12:26:51;;;;;;;0.60;0.60;;;0.50;99.90;;;;;;5057493;28;20228;-80
2024/01/06 12:29:17;;;;;;;0.50;0.50;;;0.50;99.90;;;;;;5069596;28;20178;-79
2024/01/06 12:31:43;;;;;;;0.47;0.47;;;0.50;99.90;;;;;;5068477;28;20480;-81
2024/01/06 12:34:10;;;;;;;0.50;0.50;;;0.60;99.90;;;;;;5069165;28;20435;-81
2024/01/06 12:36:40;;;;;;;0.50;0.50;;;0.50;99.90;;;;;;5051809;28;20447;-81
2024/01/06 12:39:13;;;;;;;0.40;0.40;;;0.50;99.90;;;;;;5070076;28;20448;-81
2024/01/06 12:41:41;;;;;;;0.40;0.40;;;0.50;99.90;;;;;;5065523;28;20974;-81
2024/01/06 12:44:08;;;;;;;0.40;0.40;;;0.50;99.90;;;;;;5050053;28;20440;-82
2024/01/06 12:46:33;;;;;;;0.50;0.50;;;0.60;99.90;;;;;;5068841;28;20408;-82
2024/01/06 12:48:59;;;;;;;0.50;0.50;;;0.60;99.90;;;;;;5051471;28;20952;-82
2024/01/06 12:51:25;;;;;;;0.47;0.47;;;0.60;99.90;;;;;;5068988;28;20206;-82
2024/01/06 12:53:50;;;;;;;0.50;0.50;;;0.60;99.90;;;;;;5049857;28;20197;-82
2024/01/06 12:56:16;;;;;;;0.40;0.40;;;0.50;99.90;;;;;;5040577;28;20178;-81
2024/01/06 12:58:42;;;;;;;0.40;0.40;;;0.60;99.90;;;;;;5049345;28;20185;-81
2024/01/06 13:01:07;;;;;;;0.50;0.50;;;0.60;99.90;;;;;;5069049;28;20182;-82
2024/01/06 13:03:33;;;;;;;0.40;0.40;;;0.60;99.90;;;;;;5067214;28;20454;-81
2024/01/06 13:06:00;;;;;;;0.50;0.50;;;0.60;99.90;;;;;;5063642;28;20792;-82
2024/01/06 13:08:27;;;;;;;0.50;0.50;;;0.50;99.90;;;;;;5065290;28;20701;-82
2024/01/06 13:10:53;;;;;;;0.50;0.50;;;0.60;99.90;;;;;;5047918;28;21948;-81
2024/01/06 13:13:18;;;;;;;0.43;0.43;;;0.60;99.90;;;;;;5068757;28;20472;-81
2024/01/06 13:15:46;;;;;;;0.50;0.50;;;0.60;99.90;;;;;;5050463;28;20251;-80
2024/01/06 13:18:12;;;;;;;0.50;0.50;;;0.60;99.90;;;;;;5051096;28;20193;-80
2024/01/06 13:20:40;;;;;;;0.40;0.40;;;0.50;99.90;;;;;;5064885;28;20438;-81